createdAt,value
2023-01-30T00:29:23.845Z,348
2023-01-30T00:49:23.775Z,349
2023-01-30T01:09:23.908Z,349
2023-01-30T01:29:23.990Z,348
2023-01-30T01:49:24.064Z,350
2023-01-30T02:09:31.061Z,351
2023-01-30T02:29:31.141Z,350
2023-01-30T02:49:24.169Z,349
2023-01-30T03:09:24.193Z,347
2023-01-30T03:29:31.244Z,348
2023-01-30T03:49:24.642Z,349
2023-01-30T04:09:31.336Z,348
2023-01-30T04:29:24.390Z,349
2023-01-30T04:49:24.455Z,350
2023-01-30T05:09:24.493Z,351
2023-01-30T05:29:24.427Z,349
2023-01-30T05:49:24.586Z,349
2023-01-30T06:09:24.618Z,350
2023-01-30T06:29:24.665Z,350
2023-01-30T06:49:24.697Z,351
2023-01-30T07:09:24.725Z,353
2023-01-30T07:29:24.786Z,353
2023-01-30T07:49:24.816Z,354
2023-01-30T08:09:24.855Z,356
2023-01-30T08:29:24.936Z,357
2023-01-30T08:49:24.966Z,355
2023-01-30T09:09:25.001Z,356
2023-01-30T09:29:25.046Z,356
2023-01-30T09:49:25.079Z,358
2023-01-30T10:29:25.089Z,356
2023-01-30T10:49:25.209Z,357
2023-01-30T11:09:25.174Z,359
2023-01-30T11:29:25.184Z,362
2023-01-30T11:49:44.960Z,362
2023-01-30T12:09:25.361Z,361
2023-01-30T12:29:25.433Z,361
2023-01-30T13:09:25.485Z,358
2023-01-30T13:29:25.575Z,359
2023-01-30T13:49:25.574Z,359
2023-01-30T14:09:25.591Z,358
2023-01-30T14:29:25.640Z,353
2023-01-30T14:49:25.672Z,356
2023-01-30T15:09:25.748Z,355
2023-01-30T15:29:25.774Z,353
2023-01-30T15:49:25.679Z,352
2023-01-30T16:09:25.723Z,351
2023-01-30T16:29:25.882Z,352
2023-01-30T16:49:25.926Z,351
2023-01-30T17:09:25.967Z,350
2023-01-30T17:49:26.116Z,349
2023-01-30T18:09:26.067Z,349
2023-01-30T18:29:26.125Z,348
2023-01-30T18:49:26.178Z,346
2023-01-30T19:49:26.287Z,338
2023-01-30T20:09:26.342Z,343
2023-01-30T20:29:26.402Z,344
2023-01-30T20:49:33.417Z,343
2023-01-30T21:09:26.465Z,342
2023-01-30T21:29:26.517Z,345
2023-01-30T21:49:26.555Z,336
2023-01-30T22:09:26.594Z,336
2023-01-30T22:29:26.651Z,340
2023-01-30T22:49:26.693Z,342
2023-01-30T23:09:26.717Z,344
2023-01-30T23:49:26.735Z,344
